Jackson Springs, NC

5:10 PM EST on December 08, 2019 (GMT -0500)
West End | | Change Station

Elev 551 ft 35.24 °N, 79.59 °W | Updated 2 minutes ago

Partly Cloudy
Partly Cloudy
47.1 °F
Feels Like 47 °F
N
0
Wind Variable Wind from South
Gusts 0.0 mph

Today
High -- | Low -- °F
--% Chance of Precip.
Yesterday
High -- | Low -- °F
Precip. -- in
Pressure 30.35 in
Visibility 10.0 miles
Clouds Mostly Cloudy 6000 ft
Overcast 8500 ft
Windchill 47 °F
Dew Point 37 °F
Humidity 69%
Rainfall 0.00 in
Snow Depth Not available.
7:14 AM 5:06 PM
Waxing Gibbous, 89% visible
METAR KSOP 082156Z AUTO 04007KT 10SM BKN060 OVC085 09/02 A3032 RMK AO2 SLP275 T00940017
Pressure 30.35 in
Visibility 10.0 miles
Clouds Mostly Cloudy 6000 ft
Overcast 8500 ft
Windchill 47 °F
Dew Point 37 °F
Humidity 69%
Rainfall 0.00 in
Snow Depth Not available.
7:14 AM 5:06 PM
Waxing Gibbous, 89% visible
METAR KSOP 082156Z AUTO 04007KT 10SM BKN060 OVC085 09/02 A3032 RMK AO2 SLP275 T00940017

Get Severe Weather Alerts

Thanks for signing up!

Be on the lookout for a verification email in your inbox.

You'll start receiving the daily forecast at 6 AM.

×

10-Day Weather Forecast

Almanac

Astronomy

Dec. 08, 2019 Rise Set
Actual Time
Civil Twilight
Nautical Twilight
Astronomical Twilight
Moon
Length of Visible Light
Length of Day
Tomorrow will be .
, % of the Moon is Illuminated

Today's Extremes

State Highs State Lows

Community

WunderPhotos

Category 6

Welcome to Category 6. This is the collective home for Weather Underground's featured writeups by Dr. Jeff Masters (right), Bob Henson (left), Chris Burt, and other regular contributors.

Nearby

Air Quality

  Air Quality AQ Index Pollutant
Not available.

Snow Depth

Station Depth Elevation

Earthquake Activity

City Distance Mag. Time & Date
Minimum magnitude displayed is 2.5.

Coastal Water Temperatures

Place Temperature

Stations

Nearby Weather Stations

Station Location Temp. Windchill Dew Point Humidity Wind Precip. Elev Updated Type
                   

Watches & Warnings

There are currently no watches in effect.